MPDA/DAV METAR and TAF weather

Enter ICAO airport designator
Station Type Date Time Source
MPDA METAR 2020/04/04 23:00 UTC NOAA

MPDA 042300Z 22010KT 9999 FEW020 30/24 Q1006


Station Type Date Time Source
MPDA Decoded METAR 2020/04/04 23:00 UTC NOAA

David, Panama (MPDA) 08-24N 082-25W 26M
Apr 04, 2020 - 07:00 PM EDT / 2020.04.04 2300 UTC
Wind: from the SW (220 degrees) at 12 MPH (10 KT):0
Visibility: greater than 7 mile(s):0
Sky conditions: mostly clear
Temperature: 86 F (30 C)
Heat index: 95.0 F (35.0 C):1
Dew Point: 75 F (24 C)
Relative Humidity: 70%
Pressure (altimeter): 29.71 in. Hg (1006 hPa)
ob: MPDA 042300Z 22010KT 9999 FEW020 30/24 Q1006
cycle: 23

Station Type Date Time Source
MPDA TAF 2020/04/04 18:27 UTC NOAA

TAF TAF MPDA 041700Z 0418/0506 18010KT 9999 SCT018 PROB30
TEMPO 0421/0423 7000 SHRA SCT016TCU SCT090
BECMG 0501/0505 34005KT

Example: see airport list